createdAt,value
2022-09-23T00:00:42.463Z,100894.97
2022-09-23T00:02:48.656Z,100891.53
2022-09-23T00:04:52.689Z,100887.16
2022-09-23T00:06:55.454Z,100886.31
2022-09-23T00:08:58.058Z,100896.72
2022-09-23T00:11:05.045Z,100891.53
2022-09-23T00:13:08.480Z,100887.19
2022-09-23T00:15:11.550Z,100885.38
2022-09-23T00:17:14.573Z,100882.72
2022-09-23T00:19:17.213Z,100887.84
2022-09-23T00:21:22.203Z,100893.03
2022-09-23T00:23:24.829Z,100890.38
2022-09-23T00:25:29.657Z,100882.59
2022-09-23T00:27:33.843Z,100885.25
2022-09-23T00:29:36.894Z,100883.41
2022-09-23T00:31:39.520Z,100878.09
2022-09-23T00:33:43.389Z,100882.41
2022-09-23T00:35:46.075Z,100882.38
2022-09-23T00:37:50.050Z,100883.28
2022-09-23T00:39:52.678Z,100878.94
2022-09-23T00:41:55.932Z,100880.66
2022-09-23T00:43:59.270Z,100886.72
2022-09-23T00:46:02.024Z,100881.50
2022-09-23T00:48:05.234Z,100881.47
2022-09-23T00:50:10.688Z,100884.97
2022-09-23T00:52:16.795Z,100878.91
2022-09-23T00:54:22.041Z,100882.34
2022-09-23T00:56:25.306Z,100880.56
2022-09-23T00:58:31.118Z,100882.22
2022-09-23T01:00:35.518Z,100877.75
2022-09-23T01:02:39.440Z,100875.25
2022-09-23T01:04:42.494Z,100868.22
2022-09-23T01:06:45.249Z,100867.22
2022-09-23T01:08:48.408Z,100869.03
2022-09-23T01:10:57.344Z,100869.84
2022-09-23T01:13:06.850Z,100868.97
2022-09-23T01:15:15.219Z,100866.28
2022-09-23T01:17:23.874Z,100862.78
2022-09-23T01:19:38.367Z,100865.41
2022-09-23T01:21:48.204Z,100856.72
2022-09-23T01:24:16.407Z,100859.25
2022-09-23T01:26:29.625Z,100855.75
2022-09-23T01:28:41.375Z,100855.81
2022-09-23T01:30:48.671Z,100857.41
2022-09-23T01:32:57.294Z,100855.63
2022-09-23T01:35:04.475Z,100847.75
2022-09-23T01:37:09.774Z,100849.47
2022-09-23T01:39:15.373Z,100852.06
2022-09-23T01:41:25.566Z,100842.53
2022-09-23T01:43:32.299Z,100846.72
2022-09-23T01:45:37.317Z,100850.25
2022-09-23T01:47:44.977Z,100858.00
2022-09-23T01:49:51.474Z,100853.56
2022-09-23T01:51:57.987Z,100851.75
2022-09-23T01:54:05.507Z,100846.56
2022-09-23T01:56:13.471Z,100854.41
2022-09-23T01:58:20.225Z,100856.16
2022-09-23T02:00:24.011Z,100851.75
2022-09-23T02:02:30.285Z,100852.69
2022-09-23T02:04:39.607Z,100847.38
2022-09-23T02:06:46.356Z,100848.31
2022-09-23T02:08:53.054Z,100845.66
2022-09-23T02:10:58.608Z,100842.94
2022-09-23T02:13:05.271Z,100852.44
2022-09-23T02:15:10.284Z,100842.94
2022-09-23T02:17:16.482Z,100847.19
2022-09-23T02:19:21.818Z,100839.41
2022-09-23T02:21:27.555Z,100843.72
2022-09-23T02:23:32.906Z,100841.97
2022-09-23T02:25:40.083Z,100841.06
2022-09-23T02:27:45.494Z,100836.72
2022-09-23T02:29:54.642Z,100836.69
2022-09-23T02:31:58.922Z,100834.13
2022-09-23T02:34:04.107Z,100839.25
2022-09-23T02:36:09.851Z,100833.13
2022-09-23T02:38:18.852Z,100829.69
2022-09-23T02:40:25.105Z,100833.13
2022-09-23T02:42:33.218Z,100830.41
2022-09-23T02:44:35.999Z,100828.59
2022-09-23T02:46:38.905Z,100833.78
2022-09-23T02:48:42.485Z,100832.91
2022-09-23T02:50:47.618Z,100823.38
2022-09-23T02:52:50.266Z,100822.53
2022-09-23T02:54:54.343Z,100814.63
2022-09-23T02:56:57.323Z,100812.88
2022-09-23T02:59:00.102Z,100811.09
2022-09-23T03:01:08.410Z,100806.78
2022-09-23T03:03:24.107Z,100804.97
2022-09-23T03:05:30.159Z,100808.38
2022-09-23T03:07:37.006Z,100810.13
2022-09-23T03:09:42.113Z,100804.13
2022-09-23T03:11:49.703Z,100805.00
2022-09-23T03:13:56.201Z,100805.97
2022-09-23T03:16:05.070Z,100808.56
2022-09-23T03:18:12.764Z,100804.25
2022-09-23T03:20:18.605Z,100806.81
2022-09-23T03:22:24.467Z,100802.53
2022-09-23T03:24:27.177Z,100808.78
2022-09-23T03:26:32.143Z,100806.19
2022-09-23T03:28:37.508Z,100805.44
2022-09-23T03:30:42.085Z,100808.03
2022-09-23T03:32:45.888Z,100809.56
2022-09-23T03:34:50.216Z,100809.25
2022-09-23T03:36:57.183Z,100810.63
2022-09-23T03:39:03.912Z,100804.34
2022-09-23T03:41:09.421Z,100810.34
2022-09-23T03:43:13.253Z,100806.88
2022-09-23T03:45:19.781Z,100811.28
2022-09-23T03:47:22.391Z,100801.88
2022-09-23T03:49:27.286Z,100799.22
2022-09-23T03:51:29.935Z,100802.59
2022-09-23T03:53:32.532Z,100798.03
2022-09-23T03:55:35.553Z,100793.56
2022-09-23T03:57:38.743Z,100798.75
2022-09-23T03:59:41.775Z,100796.19
2022-09-23T04:01:46.073Z,100797.03
2022-09-23T04:03:49.164Z,100793.66
2022-09-23T04:05:51.845Z,100786.84
2022-09-23T04:07:54.863Z,100790.38
2022-09-23T04:09:57.891Z,100785.19
2022-09-23T04:12:00.758Z,100792.81
2022-09-23T04:14:03.373Z,100787.47
2022-09-23T04:16:06.224Z,100792.66
2022-09-23T04:18:10.287Z,100792.38
2022-09-23T04:20:12.989Z,100794.00
2022-09-23T04:22:15.596Z,100798.38
2022-09-23T04:24:18.344Z,100790.53
2022-09-23T04:26:20.959Z,100792.09
2022-09-23T04:28:23.945Z,100799.75
2022-09-23T04:30:26.631Z,100798.75
2022-09-23T04:32:29.262Z,100793.41
2022-09-23T04:34:33.268Z,100793.28
2022-09-23T04:36:36.156Z,100798.38
2022-09-23T04:38:38.745Z,100802.56
2022-09-23T04:40:41.546Z,100800.81
2022-09-23T04:42:44.193Z,100800.81
2022-09-23T04:44:46.836Z,100805.16
2022-09-23T04:46:49.715Z,100818.94
2022-09-23T04:48:52.354Z,100817.25
2022-09-23T04:51:02.453Z,100815.63
2022-09-23T04:53:05.381Z,100815.59
2022-09-23T04:55:11.231Z,100809.66
2022-09-23T04:57:14.875Z,100811.56
2022-09-23T04:59:17.594Z,100810.06
2022-09-23T05:01:24.656Z,100802.34
2022-09-23T05:03:27.431Z,100808.13
2022-09-23T05:05:31.810Z,100808.97
2022-09-23T05:07:36.167Z,100805.63
2022-09-23T05:09:38.746Z,100810.13
2022-09-23T05:11:41.385Z,100802.41
2022-09-23T05:13:44.238Z,100805.13
2022-09-23T05:15:46.874Z,100809.59
2022-09-23T05:17:49.693Z,100808.69
2022-09-23T05:19:52.313Z,100807.09
2022-09-23T05:21:55.086Z,100808.59
2022-09-23T05:24:00.774Z,100810.34
2022-09-23T05:26:04.645Z,100811.31
2022-09-23T05:28:07.230Z,100806.94
2022-09-23T05:30:11.591Z,100805.97
2022-09-23T05:32:14.815Z,100812.00
2022-09-23T05:34:18.641Z,100810.28
2022-09-23T05:36:21.493Z,100810.28
2022-09-23T05:38:24.199Z,100805.97
2022-09-23T05:40:28.239Z,100812.03
2022-09-23T05:42:30.878Z,100815.41
2022-09-23T05:44:33.553Z,100814.56
2022-09-23T05:46:36.506Z,100821.66
2022-09-23T05:48:39.938Z,100825.22
2022-09-23T05:50:49.901Z,100823.63
2022-09-23T05:52:52.536Z,100819.38
2022-09-23T05:54:57.998Z,100822.88
2022-09-23T05:57:04.894Z,100824.75
2022-09-23T05:59:07.977Z,100820.56
2022-09-23T06:01:11.578Z,100821.41
2022-09-23T06:03:14.348Z,100825.75
2022-09-23T06:05:17.238Z,100823.19
2022-09-23T06:07:19.960Z,100826.75
2022-09-23T06:09:22.545Z,100825.94
2022-09-23T06:11:25.165Z,100820.00
2022-09-23T06:13:29.141Z,100815.84
2022-09-23T06:15:32.589Z,100821.97
2022-09-23T06:17:35.208Z,100810.84
2022-09-23T06:19:37.841Z,100813.44
2022-09-23T06:21:41.341Z,100809.25
2022-09-23T06:23:44.458Z,100809.38
2022-09-23T06:25:47.092Z,100811.28
2022-09-23T06:27:54.271Z,100811.38
2022-09-23T06:29:58.269Z,100814.94
2022-09-23T06:32:00.976Z,100804.69
2022-09-23T06:34:11.794Z,100805.66
2022-09-23T06:36:28.395Z,100810.91
2022-09-23T06:38:40.027Z,100808.38
2022-09-23T06:40:42.721Z,100807.59
2022-09-23T06:42:49.029Z,100807.69
2022-09-23T06:44:54.788Z,100807.72
2022-09-23T06:46:58.774Z,100807.78
2022-09-23T06:49:02.723Z,100803.44
2022-09-23T06:51:07.333Z,100806.94
2022-09-23T06:53:10.018Z,100811.34
2022-09-23T06:55:12.708Z,100807.84
2022-09-23T06:57:15.418Z,100806.22
2022-09-23T06:59:18.260Z,100814.06
2022-09-23T07:01:21.140Z,100811.53
2022-09-23T07:03:25.099Z,100811.53
2022-09-23T07:05:27.734Z,100808.94
2022-09-23T07:07:31.586Z,100809.88
2022-09-23T07:09:34.236Z,100812.44
2022-09-23T07:11:37.645Z,100819.47
2022-09-23T07:13:41.099Z,100815.16
2022-09-23T07:15:43.727Z,100815.25
2022-09-23T07:17:46.378Z,100811.78
2022-09-23T07:19:50.735Z,100823.09
2022-09-23T07:21:53.821Z,100815.31
2022-09-23T07:23:58.165Z,100819.69
2022-09-23T07:26:01.250Z,100812.81
2022-09-23T07:28:03.875Z,100818.13
2022-09-23T07:30:12.370Z,100819.03
2022-09-23T07:32:19.909Z,100819.09
2022-09-23T07:34:22.615Z,100818.31
2022-09-23T07:36:28.009Z,100820.13
2022-09-23T07:38:31.415Z,100821.94
2022-09-23T07:40:34.138Z,100820.25
2022-09-23T07:42:36.867Z,100823.78
2022-09-23T07:44:39.509Z,100820.50
2022-09-23T07:46:42.245Z,100820.53
2022-09-23T07:48:45.665Z,100821.44
2022-09-23T07:50:48.303Z,100825.78
2022-09-23T07:52:53.113Z,100815.41
2022-09-23T07:54:55.753Z,100819.81
2022-09-23T07:56:58.448Z,100817.97
2022-09-23T07:59:02.258Z,100817.31
2022-09-23T08:01:06.299Z,100815.78
2022-09-23T08:03:09.320Z,100820.16
2022-09-23T08:05:12.038Z,100814.84
2022-09-23T08:07:14.685Z,100825.34
2022-09-23T08:09:23.813Z,100822.84
2022-09-23T08:11:27.043Z,100820.31
2022-09-23T08:13:30.805Z,100822.25
2022-09-23T08:15:33.650Z,100818.78
2022-09-23T08:17:36.350Z,100824.75
2022-09-23T08:19:39.012Z,100826.53
2022-09-23T08:21:41.789Z,100830.03
2022-09-23T08:23:44.532Z,100828.53
2022-09-23T08:25:48.829Z,100821.63
2022-09-23T08:27:52.454Z,100826.84
2022-09-23T08:29:55.100Z,100828.75
2022-09-23T08:31:58.058Z,100823.78
2022-09-23T08:34:00.666Z,100824.72
2022-09-23T08:36:03.916Z,100825.66
2022-09-23T08:38:06.739Z,100818.78
2022-09-23T08:40:09.958Z,100825.00
2022-09-23T08:42:18.346Z,100820.59
2022-09-23T08:44:25.164Z,100827.38
2022-09-23T08:46:30.882Z,100823.97
2022-09-23T08:48:36.738Z,100823.31
2022-09-23T08:50:42.723Z,100822.41
2022-09-23T08:52:49.427Z,100830.41
2022-09-23T08:54:55.445Z,100824.44
2022-09-23T08:57:00.700Z,100821.69
2022-09-23T08:59:08.456Z,100821.66
2022-09-23T09:01:16.438Z,100823.44
2022-09-23T09:03:21.664Z,100822.69
2022-09-23T09:05:27.479Z,100819.53
2022-09-23T09:07:37.667Z,100819.53
2022-09-23T09:09:42.245Z,100813.34
2022-09-23T09:11:48.620Z,100811.69
2022-09-23T09:13:58.483Z,100812.63
2022-09-23T09:16:14.986Z,100817.03
2022-09-23T09:18:19.657Z,100811.78
2022-09-23T09:20:23.640Z,100807.59
2022-09-23T09:24:39.586Z,100808.63
2022-09-23T09:26:42.253Z,100799.00
2022-09-23T09:28:48.423Z,100799.06
2022-09-23T09:30:54.685Z,100794.72
2022-09-23T09:33:02.647Z,100786.94
2022-09-23T09:35:08.794Z,100787.81
2022-09-23T09:37:15.838Z,100784.38
2022-09-23T09:39:21.861Z,100785.28
2022-09-23T09:41:32.219Z,100781.75
2022-09-23T09:43:35.301Z,100784.38
2022-09-23T09:45:48.503Z,100777.47
2022-09-23T09:47:56.595Z,100775.78
2022-09-23T09:50:06.995Z,100782.75
2022-09-23T09:52:13.662Z,100768.81
2022-09-23T09:54:17.566Z,100767.94
2022-09-23T09:56:27.202Z,100764.44
2022-09-23T09:58:33.465Z,100760.94
2022-09-23T10:00:38.144Z,100763.59
2022-09-23T10:02:41.665Z,100755.72
2022-09-23T10:04:44.441Z,100755.72
2022-09-23T10:07:04.305Z,100753.09
2022-09-23T10:09:11.435Z,100753.09
2022-09-23T10:11:16.104Z,100745.25
2022-09-23T10:13:20.622Z,100748.75
2022-09-23T10:15:31.198Z,100741.72
2022-09-23T10:17:35.353Z,100734.69
2022-09-23T10:19:39.225Z,100744.31
2022-09-23T10:21:42.216Z,100739.94
2022-09-23T10:23:47.474Z,100737.34
2022-09-23T10:25:57.440Z,100737.34
2022-09-23T10:28:03.639Z,100733.78
2022-09-23T10:30:22.140Z,100734.69
2022-09-23T10:32:26.829Z,100728.53
2022-09-23T10:34:29.635Z,100729.44
2022-09-23T10:36:33.114Z,100729.38
2022-09-23T10:38:35.719Z,100718.84
2022-09-23T10:40:58.645Z,100717.94
2022-09-23T10:43:29.841Z,100710.06
2022-09-23T10:45:52.391Z,100715.22
2022-09-23T10:48:00.890Z,100716.03
2022-09-23T10:50:18.406Z,100717.69
2022-09-23T10:52:28.012Z,100715.94
2022-09-23T10:54:36.805Z,100706.19
2022-09-23T10:56:44.002Z,100711.44
2022-09-23T10:58:55.463Z,100709.63
2022-09-23T11:01:04.264Z,100710.53
2022-09-23T11:03:21.790Z,100714.06
2022-09-23T11:05:32.662Z,100711.34
2022-09-23T11:07:39.607Z,100707.88
2022-09-23T11:09:53.311Z,100712.19
2022-09-23T11:12:03.479Z,100714.78
2022-09-23T11:14:15.738Z,100704.25
2022-09-23T11:16:25.767Z,100699.00
2022-09-23T11:18:49.142Z,100693.50
2022-09-23T11:20:57.779Z,100698.69
2022-09-23T11:23:11.960Z,100696.91
2022-09-23T11:25:21.143Z,100694.44
2022-09-23T11:27:31.641Z,100690.94
2022-09-23T11:29:45.324Z,100684.94
2022-09-23T11:31:58.828Z,100676.78
2022-09-23T11:34:08.765Z,100670.69
2022-09-23T11:36:13.657Z,100675.97
2022-09-23T11:38:18.846Z,100677.59
2022-09-23T11:40:24.342Z,100667.06
2022-09-23T11:42:29.921Z,100672.91
2022-09-23T11:44:34.724Z,100664.25
2022-09-23T11:46:39.891Z,100662.63
2022-09-23T11:48:44.696Z,100665.97
2022-09-23T11:50:49.911Z,100664.97
2022-09-23T11:52:58.536Z,100661.38
2022-09-23T11:55:10.566Z,100656.03
2022-09-23T11:57:20.944Z,100651.72
2022-09-23T11:59:39.469Z,100647.56
2022-09-23T12:01:46.627Z,100643.97
2022-09-23T12:03:52.646Z,100645.47
2022-09-23T12:06:02.474Z,100644.56
2022-09-23T12:08:08.078Z,100637.47
2022-09-23T12:10:12.115Z,100633.97
2022-09-23T12:12:18.731Z,100635.53
2022-09-23T12:14:25.859Z,100633.69
2022-09-23T12:16:53.729Z,100629.41
2022-09-23T12:19:04.503Z,100630.44
2022-09-23T12:21:27.414Z,100625.91
2022-09-23T12:23:44.420Z,100624.25
2022-09-23T12:25:51.019Z,100626.22
2022-09-23T12:27:55.455Z,100615.53
2022-09-23T12:30:00.315Z,100620.84
2022-09-23T12:32:09.845Z,100617.34
2022-09-23T12:34:21.742Z,100620.81
2022-09-23T12:36:26.703Z,100621.72
2022-09-23T12:38:34.494Z,100620.78
2022-09-23T12:40:40.751Z,100615.72
2022-09-23T12:42:45.969Z,100611.38
2022-09-23T12:44:50.512Z,100606.91
2022-09-23T12:47:24.730Z,100605.94
2022-09-23T12:49:37.495Z,100605.75
2022-09-23T12:52:00.129Z,100605.56
2022-09-23T12:54:21.091Z,100598.28
2022-09-23T12:56:25.202Z,100598.88
2022-09-23T12:58:38.417Z,100600.72
2022-09-23T13:00:41.034Z,100602.31
2022-09-23T13:02:44.552Z,100596.63
2022-09-23T13:05:14.657Z,100584.63
2022-09-23T13:07:17.676Z,100598.03
2022-09-23T13:09:22.373Z,100601.47
2022-09-23T13:11:27.298Z,100600.50
2022-09-23T13:13:33.790Z,100595.78
2022-09-23T13:15:37.230Z,100587.78
2022-09-23T13:17:40.867Z,100594.50
2022-09-23T13:19:47.026Z,100594.69
2022-09-23T13:22:07.871Z,100593.75
2022-09-23T13:24:21.456Z,100583.97
2022-09-23T13:26:24.124Z,100584.13
2022-09-23T13:28:32.564Z,100584.47
2022-09-23T13:30:35.595Z,100582.81
2022-09-23T13:32:40.556Z,100580.28
2022-09-23T13:34:44.238Z,100589.09
2022-09-23T13:36:47.492Z,100583.91
2022-09-23T13:38:51.414Z,100578.84
2022-09-23T13:40:55.474Z,100571.78
2022-09-23T13:42:59.611Z,100574.44
2022-09-23T13:45:02.308Z,100568.38
2022-09-23T13:47:04.963Z,100564.72
2022-09-23T13:49:19.668Z,100555.09
2022-09-23T13:51:24.461Z,100555.88
2022-09-23T13:53:28.612Z,100554.97
2022-09-23T13:55:33.471Z,100545.13
2022-09-23T13:57:36.160Z,100541.53
2022-09-23T13:59:42.295Z,100539.59
2022-09-23T14:01:45.551Z,100539.59
2022-09-23T14:03:48.409Z,100535.09
2022-09-23T14:05:51.791Z,100535.72
2022-09-23T14:07:55.352Z,100545.44
2022-09-23T14:09:57.944Z,100539.34
2022-09-23T14:12:02.947Z,100539.34
2022-09-23T14:14:07.030Z,100539.25
2022-09-23T14:16:11.896Z,100536.44
2022-09-23T14:18:19.090Z,100532.81
2022-09-23T14:20:22.701Z,100526.53
2022-09-23T14:22:26.237Z,100531.66
2022-09-23T14:24:32.856Z,100519.53
2022-09-23T14:26:35.501Z,100518.81
2022-09-23T14:28:39.471Z,100518.91
2022-09-23T14:30:43.306Z,100516.44
2022-09-23T14:32:47.759Z,100517.13
2022-09-23T14:34:51.261Z,100506.72
2022-09-23T14:37:11.281Z,100511.06
2022-09-23T14:39:13.885Z,100500.31
2022-09-23T14:41:22.098Z,100501.25
2022-09-23T14:43:26.111Z,100510.34
2022-09-23T14:45:32.551Z,100494.50
2022-09-23T14:47:36.189Z,100484.19
2022-09-23T14:49:58.824Z,100493.81
2022-09-23T14:52:06.816Z,100502.72
2022-09-23T14:54:39.790Z,100495.72
2022-09-23T14:56:43.186Z,100497.25
2022-09-23T14:58:51.902Z,100506.25
2022-09-23T15:00:58.486Z,100502.03
2022-09-23T15:03:01.862Z,100496.75
2022-09-23T15:05:18.590Z,100497.59
2022-09-23T15:07:23.124Z,100502.81
2022-09-23T15:09:26.899Z,100490.66
2022-09-23T15:11:31.140Z,100495.09
2022-09-23T15:13:36.918Z,100487.16
2022-09-23T15:15:39.648Z,100488.00
2022-09-23T15:17:44.027Z,100493.28
2022-09-23T15:19:52.429Z,100490.66
2022-09-23T15:21:54.994Z,100490.56
2022-09-23T15:23:58.548Z,100488.94
2022-09-23T15:26:03.300Z,100486.31
2022-09-23T15:28:18.191Z,100485.38
2022-09-23T15:30:21.066Z,100486.34
2022-09-23T15:32:23.686Z,100478.50
2022-09-23T15:34:27.641Z,100480.25
2022-09-23T15:36:30.340Z,100484.66
2022-09-23T15:38:33.176Z,100486.38
2022-09-23T15:40:36.490Z,100487.34
2022-09-23T15:42:39.708Z,100492.63
2022-09-23T15:44:42.265Z,100490.00
2022-09-23T15:46:46.213Z,100490.13
2022-09-23T15:48:58.774Z,100487.50
2022-09-23T15:51:10.485Z,100493.69
2022-09-23T15:53:15.018Z,100491.91
2022-09-23T15:55:18.351Z,100487.66
2022-09-23T15:57:21.506Z,100493.00
2022-09-23T15:59:24.416Z,100493.91
2022-09-23T16:01:28.706Z,100486.06
2022-09-23T16:03:31.607Z,100473.78
2022-09-23T16:05:36.716Z,100465.88
2022-09-23T16:07:40.694Z,100463.34
2022-09-23T16:09:43.384Z,100476.53
2022-09-23T16:11:47.133Z,100474.78
2022-09-23T16:13:51.322Z,100463.44
2022-09-23T16:15:53.969Z,100472.25
2022-09-23T16:17:56.579Z,100475.78
2022-09-23T16:19:59.183Z,100475.81
2022-09-23T16:22:01.982Z,100476.72
2022-09-23T16:24:06.329Z,100479.34
2022-09-23T16:26:15.132Z,100471.44
2022-09-23T16:28:17.734Z,100471.47
2022-09-23T16:30:20.346Z,100454.00
2022-09-23T16:32:24.070Z,100456.66
2022-09-23T16:34:26.644Z,100456.72
2022-09-23T16:36:31.206Z,100455.91
2022-09-23T16:38:33.794Z,100458.56
2022-09-23T16:40:37.747Z,100461.22
2022-09-23T16:42:40.370Z,100455.09
2022-09-23T16:44:43.059Z,100453.41
2022-09-23T16:46:45.661Z,100448.25
2022-09-23T16:48:52.717Z,100462.34
2022-09-23T16:50:55.771Z,100466.78
2022-09-23T16:52:58.568Z,100465.94
2022-09-23T16:55:01.204Z,100459.88
2022-09-23T16:57:05.255Z,100461.69
2022-09-23T16:59:07.980Z,100455.69
2022-09-23T17:01:30.531Z,100457.44
2022-09-23T17:03:41.140Z,100456.63
2022-09-23T17:05:46.592Z,100462.81
2022-09-23T17:07:49.562Z,100469.81
2022-09-23T17:09:52.233Z,100473.41
2022-09-23T17:11:59.147Z,100468.16
2022-09-23T17:14:03.090Z,100466.50
2022-09-23T17:16:06.022Z,100467.41
2022-09-23T17:18:09.348Z,100470.06
2022-09-23T17:20:13.084Z,100466.59
2022-09-23T17:22:15.664Z,100468.38
2022-09-23T17:24:18.229Z,100473.69
2022-09-23T17:26:23.214Z,100472.81
2022-09-23T17:28:26.318Z,100476.34
2022-09-23T17:30:30.278Z,100467.59
2022-09-23T17:32:32.871Z,100467.63
2022-09-23T17:34:35.453Z,100474.66
2022-09-23T17:36:39.500Z,100475.56
2022-09-23T17:38:43.450Z,100458.09
2022-09-23T17:40:50.279Z,100461.56
2022-09-23T17:42:53.639Z,100461.63
2022-09-23T17:44:58.162Z,100463.44
2022-09-23T17:47:02.125Z,100473.16
2022-09-23T17:49:05.267Z,100464.41
2022-09-23T17:51:08.757Z,100461.78
2022-09-23T17:53:11.352Z,100452.16
2022-09-23T17:55:13.978Z,100454.78
2022-09-23T17:57:16.606Z,100456.53
2022-09-23T17:59:19.218Z,100460.09
2022-09-23T18:01:22.938Z,100461.97
2022-09-23T18:03:28.087Z,100461.13
2022-09-23T18:05:30.834Z,100460.25
2022-09-23T18:07:33.439Z,100461.06
2022-09-23T18:09:36.045Z,100461.97
2022-09-23T18:11:39.383Z,100454.06
2022-09-23T18:13:42.977Z,100451.44
2022-09-23T18:15:45.641Z,100437.38
2022-09-23T18:17:48.260Z,100439.09
2022-09-23T18:19:52.167Z,100438.28
2022-09-23T18:21:56.062Z,100443.59
2022-09-23T18:24:21.339Z,100448.91
2022-09-23T18:26:22.712Z,100447.22
2022-09-23T18:28:25.297Z,100451.56
2022-09-23T18:30:31.980Z,100446.34
2022-09-23T18:32:34.789Z,100448.13
2022-09-23T18:34:37.438Z,100444.66
2022-09-23T18:36:41.428Z,100456.91
2022-09-23T18:38:44.029Z,100448.19
2022-09-23T18:40:55.357Z,100465.72
2022-09-23T18:42:57.953Z,100457.00
2022-09-23T18:45:00.537Z,100448.25
2022-09-23T18:47:03.137Z,100450.00
2022-09-23T18:49:23.647Z,100445.66
2022-09-23T18:51:28.164Z,100445.69
2022-09-23T18:53:34.356Z,100445.69
2022-09-23T18:55:37.375Z,100441.34
2022-09-23T18:57:40.711Z,100442.22
2022-09-23T18:59:44.332Z,100437.88
2022-09-23T19:01:48.160Z,100434.41
2022-09-23T19:03:54.724Z,100443.13
2022-09-23T19:06:01.856Z,100445.75
2022-09-23T19:08:04.508Z,100446.63
2022-09-23T19:10:09.900Z,100451.03
2022-09-23T19:12:12.540Z,100456.31
2022-09-23T19:14:15.515Z,100455.47
2022-09-23T19:16:18.319Z,100451.09
2022-09-23T19:18:21.191Z,100451.06
2022-09-23T19:20:24.625Z,100443.22
2022-09-23T19:22:27.201Z,100441.50
2022-09-23T19:24:29.794Z,100442.38
2022-09-23T19:26:36.624Z,100449.34
2022-09-23T19:28:39.628Z,100443.28
2022-09-23T19:30:42.368Z,100440.66
2022-09-23T19:32:45.221Z,100444.09
2022-09-23T19:34:47.838Z,100455.50
2022-09-23T19:36:50.464Z,100442.44
2022-09-23T19:38:56.896Z,100440.69
2022-09-23T19:41:03.530Z,100440.69
2022-09-23T19:43:07.602Z,100445.06
2022-09-23T19:45:10.538Z,100439.81
2022-09-23T19:47:17.023Z,100443.34
2022-09-23T19:49:19.735Z,100440.72
2022-09-23T19:51:22.484Z,100442.44
2022-09-23T19:53:28.111Z,100443.34
2022-09-23T19:55:31.096Z,100447.69
2022-09-23T19:57:33.972Z,100434.63
2022-09-23T19:59:40.091Z,100439.00
2022-09-23T20:01:42.785Z,100444.25
2022-09-23T20:03:46.893Z,100446.00
2022-09-23T20:05:55.189Z,100442.53
2022-09-23T20:07:58.924Z,100441.63
2022-09-23T20:10:01.770Z,100438.19
2022-09-23T20:12:04.763Z,100437.31
2022-09-23T20:14:07.769Z,100431.22
2022-09-23T20:16:12.227Z,100431.22
2022-09-23T20:18:15.247Z,100425.97
2022-09-23T20:20:18.008Z,100422.47
2022-09-23T20:22:32.230Z,100422.50
2022-09-23T20:24:35.880Z,100420.75
2022-09-23T20:26:56.295Z,100417.28
2022-09-23T20:28:59.571Z,100414.66
2022-09-23T20:31:02.308Z,100417.28
2022-09-23T20:33:06.308Z,100419.91
2022-09-23T20:35:09.260Z,100420.78
2022-09-23T20:37:11.975Z,100415.53
2022-09-23T20:39:14.610Z,100413.78
2022-09-23T20:41:17.202Z,100413.78
2022-09-23T20:43:20.148Z,100412.06
2022-09-23T20:45:22.687Z,100405.09
2022-09-23T20:47:25.391Z,100407.72
2022-09-23T20:49:34.033Z,100412.97
2022-09-23T20:51:36.677Z,100418.19
2022-09-23T20:53:39.276Z,100410.34
2022-09-23T20:55:49.750Z,100404.22
2022-09-23T20:57:52.476Z,100405.09
2022-09-23T20:59:55.045Z,100398.16
2022-09-23T21:01:58.083Z,100399.88
2022-09-23T21:04:03.737Z,100391.19
2022-09-23T21:06:08.963Z,100399.88
2022-09-23T21:08:12.520Z,100407.72
2022-09-23T21:10:15.137Z,100410.34
2022-09-23T21:12:17.736Z,100408.63
2022-09-23T21:14:21.508Z,100399.91
2022-09-23T21:16:24.526Z,100402.53
2022-09-23T21:18:27.559Z,100410.38
2022-09-23T21:20:30.206Z,100411.25
2022-09-23T21:22:35.102Z,100404.28
2022-09-23T21:25:25.338Z,100399.03
2022-09-23T21:27:00.296Z,100397.31
2022-09-23T21:29:03.900Z,100398.16
2022-09-23T21:31:08.354Z,100402.53
2022-09-23T21:33:11.638Z,100400.78
2022-09-23T21:35:14.591Z,100398.19
2022-09-23T21:37:17.538Z,100401.66
2022-09-23T21:39:21.636Z,100406.03
2022-09-23T21:41:24.877Z,100410.38
2022-09-23T21:43:32.409Z,100399.06
2022-09-23T21:45:35.133Z,100404.28
2022-09-23T21:47:37.838Z,100412.13
2022-09-23T21:49:41.522Z,100410.38
2022-09-23T21:51:54.859Z,100423.44
2022-09-23T21:53:58.714Z,100422.59
2022-09-23T21:56:04.248Z,100425.22
2022-09-23T21:58:07.223Z,100422.59
2022-09-23T22:00:10.684Z,100418.22
2022-09-23T22:02:13.804Z,100426.94
2022-09-23T22:04:19.893Z,100427.81
2022-09-23T22:06:23.529Z,100426.94
2022-09-23T22:08:26.168Z,100427.81
2022-09-23T22:10:29.490Z,100429.56
2022-09-23T22:12:33.762Z,100431.28
2022-09-23T22:14:39.272Z,100429.56
2022-09-23T22:16:42.616Z,100433.91
2022-09-23T22:18:45.398Z,100428.66
2022-09-23T22:20:48.428Z,100431.28
2022-09-23T22:22:51.309Z,100432.16
2022-09-23T22:24:53.978Z,100432.16
2022-09-23T22:26:56.574Z,100418.22
2022-09-23T22:29:18.290Z,100423.47
2022-09-23T22:31:38.866Z,100431.28
2022-09-23T22:33:41.518Z,100419.94
2022-09-23T22:35:44.124Z,100424.31
2022-09-23T22:37:49.109Z,100419.94
2022-09-23T22:39:51.850Z,100418.22
2022-09-23T22:41:54.809Z,100408.66
2022-09-23T22:43:58.416Z,100411.25
2022-09-23T22:46:02.469Z,100414.72
2022-09-23T22:48:05.352Z,100413.88
2022-09-23T22:50:09.540Z,100408.63
2022-09-23T22:52:21.188Z,100408.63
2022-09-23T22:54:24.128Z,100406.03
2022-09-23T22:56:26.758Z,100404.31
2022-09-23T22:58:32.669Z,100394.72
2022-09-23T23:00:37.116Z,100394.72
2022-09-23T23:02:42.280Z,100387.72
2022-09-23T23:04:47.431Z,100385.97
2022-09-23T23:06:50.062Z,100387.72
2022-09-23T23:08:52.668Z,100383.38
2022-09-23T23:10:55.852Z,100383.38
2022-09-23T23:12:59.089Z,100375.53
2022-09-23T23:15:01.732Z,100378.16
2022-09-23T23:17:08.379Z,100377.28
2022-09-23T23:19:13.981Z,100374.69
2022-09-23T23:21:18.005Z,100362.47
2022-09-23T23:23:20.614Z,100354.63
2022-09-23T23:25:23.185Z,100359.84
2022-09-23T23:27:25.798Z,100365.97
2022-09-23T23:29:28.654Z,100362.47
2022-09-23T23:31:33.032Z,100370.31
2022-09-23T23:33:36.176Z,100367.72
2022-09-23T23:35:40.106Z,100367.72
2022-09-23T23:37:42.743Z,100371.19
2022-09-23T23:39:47.656Z,100365.97
2022-09-23T23:41:52.214Z,100371.19
2022-09-23T23:43:55.745Z,100368.56
2022-09-23T23:45:59.958Z,100359.88
2022-09-23T23:48:03.060Z,100368.56
2022-09-23T23:50:06.298Z,100368.56
2022-09-23T23:52:10.607Z,100384.25
2022-09-23T23:54:15.023Z,100377.28